Time;durP1;ratioP1;P1;durP2;ratioP2;P2;SDS_P1;SDS_P2;PMS_P1;PMS_P2;Temp;Humidity;BMP_temperature;BMP_pressure;BME280_temperature;BME280_humidity;BME280_pressure;Samples;Min_cycle;Max_cycle;Signal;HPM_P1;HPM_P2
2021/06/24 00:01:13;;;;;;;30.97;28.67;;;;;;;;;;5084240;28;20498;-96
2021/06/24 00:03:43;;;;;;;29.63;27.50;;;;;;;;;;5070748;28;20462;-96
2021/06/24 00:06:11;;;;;;;29.83;27.43;;;;;;;;;;5074581;28;20402;-96
2021/06/24 00:08:38;;;;;;;28.10;26.20;;;;;;;;;;5074349;28;20526;-96
2021/06/24 00:11:07;;;;;;;27.10;24.93;;;;;;;;;;5088594;28;20507;-96
2021/06/24 00:13:35;;;;;;;29.40;26.30;;;;;;;;;;5088631;28;20425;-96
2021/06/24 00:16:03;;;;;;;27.47;25.43;;;;;;;;;;5091403;28;20609;-96
2021/06/24 00:18:31;;;;;;;26.10;24.20;;;;;;;;;;5091134;28;20495;-96
2021/06/24 00:21:00;;;;;;;26.47;24.63;;;;;;;;;;5073907;28;20434;-96
2021/06/24 00:23:31;;;;;;;27.00;24.97;;;;;;;;;;5094152;28;20432;-96
2021/06/24 00:25:58;;;;;;;26.17;24.27;;;;;;;;;;5095391;28;20450;-96
2021/06/24 00:28:28;;;;;;;26.57;24.40;;;;;;;;;;5094431;28;20438;-96
2021/06/24 00:30:56;;;;;;;27.63;25.40;;;;;;;;;;5094864;28;20458;-96
2021/06/24 00:33:24;;;;;;;26.07;24.47;;;;;;;;;;5095533;28;20428;-96
2021/06/24 00:35:51;;;;;;;26.73;24.30;;;;;;;;;;5095739;28;20499;-96
2021/06/24 00:38:21;;;;;;;27.10;25.20;;;;;;;;;;5076010;28;20436;-96
2021/06/24 00:40:53;;;;;;;26.63;24.53;;;;;;;;;;5232140;22;20447;-96
2021/06/24 00:43:23;;;;;;;25.20;23.33;;;;;;;;;;5096229;28;20495;-96
2021/06/24 00:45:50;;;;;;;26.43;24.37;;;;;;;;;;5079409;28;20442;-96
2021/06/24 00:48:18;;;;;;;26.50;24.07;;;;;;;;;;5099880;28;20468;-96
2021/06/24 00:50:47;;;;;;;25.50;23.70;;;;;;;;;;5083500;28;20453;-96
2021/06/24 00:53:14;;;;;;;25.20;23.10;;;;;;;;;;5099860;28;20461;-96
2021/06/24 00:55:45;;;;;;;26.00;24.00;;;;;;;;;;5082776;28;20395;-96
2021/06/24 00:58:14;;;;;;;25.67;24.07;;;;;;;;;;5106544;28;20487;-96
2021/06/24 01:00:42;;;;;;;26.43;24.20;;;;;;;;;;5120134;28;20450;-96
2021/06/24 01:03:10;;;;;;;26.50;24.70;;;;;;;;;;5118202;28;20432;-96
2021/06/24 01:05:37;;;;;;;26.00;24.10;;;;;;;;;;5118587;28;20547;-96
2021/06/24 01:08:06;;;;;;;26.20;24.20;;;;;;;;;;5116462;28;20490;-96
2021/06/24 01:10:33;;;;;;;25.77;23.97;;;;;;;;;;5113835;28;20444;-96
2021/06/24 01:13:03;;;;;;;27.13;24.53;;;;;;;;;;5112404;28;20504;-96
2021/06/24 01:15:31;;;;;;;25.57;23.77;;;;;;;;;;5095704;28;20433;-96
2021/06/24 01:17:58;;;;;;;27.53;25.13;;;;;;;;;;5115609;28;20494;-96
2021/06/24 01:20:27;;;;;;;26.67;24.10;;;;;;;;;;5115049;28;20434;-96
2021/06/24 01:22:55;;;;;;;26.70;24.40;;;;;;;;;;5115728;28;20502;-96
2021/06/24 01:25:25;;;;;;;25.73;24.00;;;;;;;;;;5114387;28;20447;-96
2021/06/24 01:27:56;;;;;;;26.37;24.17;;;;;;;;;;5117816;28;20441;-96
2021/06/24 01:30:27;;;;;;;26.23;24.20;;;;;;;;;;5115866;28;20440;-96
2021/06/24 01:32:55;;;;;;;26.40;24.30;;;;;;;;;;5115807;28;20397;-96
2021/06/24 01:35:24;;;;;;;26.20;24.10;;;;;;;;;;5115520;28;20530;-96
2021/06/24 01:37:56;;;;;;;25.33;23.53;;;;;;;;;;5116941;28;20413;-96
2021/06/24 01:40:27;;;;;;;26.20;24.03;;;;;;;;;;5117209;28;20437;-96
2021/06/24 01:42:55;;;;;;;27.87;25.07;;;;;;;;;;5115323;28;20460;-96
2021/06/24 01:45:23;;;;;;;26.67;24.57;;;;;;;;;;5112614;28;20412;-96
2021/06/24 01:47:51;;;;;;;26.60;24.40;;;;;;;;;;5113712;28;20532;-96
2021/06/24 01:50:19;;;;;;;26.73;24.53;;;;;;;;;;5112278;28;20457;-96
2021/06/24 01:52:48;;;;;;;26.37;24.03;;;;;;;;;;5110149;28;20436;-96
2021/06/24 01:55:16;;;;;;;25.87;23.97;;;;;;;;;;5112722;28;20451;-96
2021/06/24 01:57:46;;;;;;;25.33;23.30;;;;;;;;;;5109501;28;20542;-96
2021/06/24 02:00:15;;;;;;;27.47;25.30;;;;;;;;;;5104188;28;20437;-96
2021/06/24 02:02:43;;;;;;;27.83;25.50;;;;;;;;;;5100079;28;20414;-96
2021/06/24 02:05:11;;;;;;;26.17;24.20;;;;;;;;;;5099851;28;20421;-96
2021/06/24 02:07:42;;;;;;;26.40;24.40;;;;;;;;;;5106389;28;20495;-96
2021/06/24 02:10:10;;;;;;;28.10;25.70;;;;;;;;;;5105141;28;20425;-96
2021/06/24 02:12:38;;;;;;;26.60;24.40;;;;;;;;;;5105565;28;20458;-96
2021/06/24 02:15:09;;;;;;;25.17;23.40;;;;;;;;;;5087538;28;20412;-96
2021/06/24 02:17:37;;;;;;;26.90;24.67;;;;;;;;;;5102695;28;20457;-96
2021/06/24 02:20:05;;;;;;;27.43;25.27;;;;;;;;;;5104741;28;20479;-96
2021/06/24 02:22:33;;;;;;;27.57;25.17;;;;;;;;;;5103953;28;20489;-96
2021/06/24 02:25:00;;;;;;;25.27;23.43;;;;;;;;;;5107506;28;20540;-96
2021/06/24 02:27:28;;;;;;;26.20;24.30;;;;;;;;;;5106311;28;20391;-90
2021/06/24 03:59:21;;;;;;;25.80;23.87;;;;;;;;;;5453290;23;20496;-85
2021/06/24 04:01:48;;;;;;;25.80;23.83;;;;;;;;;;4975566;28;20425;-86
2021/06/24 04:04:15;;;;;;;25.10;23.30;;;;;;;;;;4975852;28;20803;-85
2021/06/24 04:12:54;;;;;;;26.13;23.90;;;;;;;;;;4973207;23;20808;-86
2021/06/24 04:15:23;;;;;;;26.07;24.13;;;;;;;;;;4955938;28;20462;-86
2021/06/24 04:17:51;;;;;;;26.50;24.50;;;;;;;;;;4955927;29;20457;-90
2021/06/24 04:26:25;;;;;;;26.90;24.87;;;;;;;;;;4986211;23;20531;-85
2021/06/24 04:28:52;;;;;;;27.53;25.10;;;;;;;;;;4977910;28;20431;-84
2021/06/24 04:31:21;;;;;;;28.50;25.83;;;;;;;;;;4978232;28;20454;-85
2021/06/24 04:33:49;;;;;;;25.80;23.63;;;;;;;;;;4977821;28;20436;-85
2021/06/24 04:36:16;;;;;;;27.30;25.13;;;;;;;;;;4979116;28;20426;-85
2021/06/24 04:38:44;;;;;;;26.57;24.37;;;;;;;;;;4979063;28;20510;-85
2021/06/24 04:41:11;;;;;;;27.80;25.33;;;;;;;;;;4979070;28;20401;-85
2021/06/24 04:43:39;;;;;;;28.73;26.40;;;;;;;;;;4979061;28;20418;-85
2021/06/24 04:46:06;;;;;;;28.67;26.27;;;;;;;;;;4978804;28;20456;-85
2021/06/24 04:48:35;;;;;;;28.10;25.67;;;;;;;;;;4977472;28;20416;-85
2021/06/24 04:51:02;;;;;;;28.53;26.30;;;;;;;;;;4978599;28;20465;-85
2021/06/24 04:53:30;;;;;;;27.47;25.30;;;;;;;;;;4978736;28;20416;-85
2021/06/24 04:55:57;;;;;;;28.43;25.53;;;;;;;;;;4977417;28;20420;-85
2021/06/24 04:58:25;;;;;;;27.93;25.93;;;;;;;;;;4977285;28;20473;-85
2021/06/24 05:00:52;;;;;;;28.37;26.30;;;;;;;;;;4978560;28;20456;-85
2021/06/24 05:03:20;;;;;;;30.43;28.00;;;;;;;;;;4978480;28;20414;-85
2021/06/24 05:05:49;;;;;;;27.37;25.50;;;;;;;;;;4978547;28;20435;-85
2021/06/24 05:08:18;;;;;;;26.77;24.67;;;;;;;;;;4978540;28;20501;-85
2021/06/24 05:10:45;;;;;;;30.60;27.33;;;;;;;;;;4978363;28;20439;-85
2021/06/24 05:13:13;;;;;;;28.23;25.90;;;;;;;;;;4978539;28;20437;-86
2021/06/24 05:15:42;;;;;;;28.57;26.60;;;;;;;;;;4978249;28;20448;-85
2021/06/24 05:18:10;;;;;;;27.03;24.87;;;;;;;;;;4978302;28;20421;-85
2021/06/24 05:20:38;;;;;;;28.47;26.13;;;;;;;;;;4978786;28;20455;-84
2021/06/24 05:23:07;;;;;;;27.27;25.07;;;;;;;;;;4978136;28;20465;-85
2021/06/24 05:25:37;;;;;;;28.10;25.70;;;;;;;;;;4977788;28;20478;-85
2021/06/24 05:28:04;;;;;;;27.40;25.37;;;;;;;;;;4978003;28;20438;-85
2021/06/24 05:30:32;;;;;;;28.07;25.93;;;;;;;;;;4960964;28;20431;-85
2021/06/24 05:32:59;;;;;;;28.93;27.03;;;;;;;;;;4977297;28;20488;-85
2021/06/24 05:35:27;;;;;;;29.23;26.90;;;;;;;;;;4978277;28;20433;-85
2021/06/24 05:37:54;;;;;;;27.90;25.63;;;;;;;;;;4960546;28;20416;-85
2021/06/24 05:40:23;;;;;;;29.03;26.70;;;;;;;;;;4977812;28;20437;-85
2021/06/24 05:42:51;;;;;;;27.70;25.43;;;;;;;;;;4978011;28;20932;-85
2021/06/24 05:45:19;;;;;;;29.87;27.60;;;;;;;;;;4978083;28;20427;-85
2021/06/24 05:47:46;;;;;;;27.10;25.17;;;;;;;;;;4977781;28;20855;-86
2021/06/24 05:50:14;;;;;;;28.10;26.20;;;;;;;;;;4977519;28;20423;-85
2021/06/24 05:52:41;;;;;;;27.67;25.43;;;;;;;;;;4977627;28;20495;-86
2021/06/24 05:55:09;;;;;;;27.20;25.20;;;;;;;;;;4977405;28;20475;-86
2021/06/24 05:57:38;;;;;;;27.70;25.53;;;;;;;;;;4977238;28;20970;-85
2021/06/24 06:00:06;;;;;;;28.97;26.67;;;;;;;;;;4977310;28;20476;-85
2021/06/24 06:02:34;;;;;;;30.70;27.93;;;;;;;;;;4977186;28;20438;-85
2021/06/24 06:05:01;;;;;;;26.27;24.00;;;;;;;;;;4977223;28;20491;-86
2021/06/24 06:07:31;;;;;;;27.77;25.47;;;;;;;;;;4977536;28;20912;-85
2021/06/24 06:09:58;;;;;;;28.33;26.27;;;;;;;;;;4960338;28;20513;-85
2021/06/24 06:12:27;;;;;;;29.47;26.60;;;;;;;;;;4977158;28;20473;-85
2021/06/24 06:14:55;;;;;;;29.03;26.83;;;;;;;;;;4977065;28;20492;-85
2021/06/24 06:17:23;;;;;;;29.13;26.77;;;;;;;;;;4977029;28;20448;-85
2021/06/24 06:19:50;;;;;;;29.43;26.93;;;;;;;;;;4977315;28;20410;-85
2021/06/24 06:22:18;;;;;;;27.10;25.13;;;;;;;;;;4977067;28;20458;-85
2021/06/24 06:24:45;;;;;;;29.17;26.57;;;;;;;;;;4976672;28;20466;-85
2021/06/24 06:27:13;;;;;;;28.87;26.57;;;;;;;;;;4959791;28;20521;-85
2021/06/24 06:29:40;;;;;;;27.80;25.80;;;;;;;;;;4977109;28;20483;-85
2021/06/24 06:32:10;;;;;;;29.03;26.93;;;;;;;;;;4977044;28;20480;-85
2021/06/24 06:34:37;;;;;;;31.50;28.80;;;;;;;;;;4976680;28;20953;-85
2021/06/24 06:37:05;;;;;;;29.27;26.90;;;;;;;;;;4976948;28;20429;-85
2021/06/24 06:39:32;;;;;;;29.80;27.50;;;;;;;;;;4976590;28;20440;-85
2021/06/24 06:41:59;;;;;;;28.83;26.77;;;;;;;;;;4959600;28;20457;-85
2021/06/24 06:44:27;;;;;;;28.80;26.60;;;;;;;;;;4975711;28;20443;-85
2021/06/24 06:46:54;;;;;;;29.83;27.53;;;;;;;;;;4977123;28;20441;-85
2021/06/24 06:49:23;;;;;;;29.47;27.00;;;;;;;;;;4977085;28;20429;-85
2021/06/24 06:51:50;;;;;;;28.67;26.40;;;;;;;;;;4976555;28;20999;-86
2021/06/24 06:54:18;;;;;;;30.43;28.23;;;;;;;;;;4977014;28;20434;-85
2021/06/24 06:56:46;;;;;;;29.30;26.63;;;;;;;;;;4975949;28;20421;-85
2021/06/24 06:59:14;;;;;;;29.87;27.67;;;;;;;;;;4958815;28;20445;-85
2021/06/24 07:01:41;;;;;;;29.93;27.73;;;;;;;;;;4959202;28;20454;-85
2021/06/24 07:04:09;;;;;;;29.50;27.13;;;;;;;;;;4976580;28;20907;-85
2021/06/24 07:06:38;;;;;;;30.47;28.07;;;;;;;;;;4976018;28;20422;-86
2021/06/24 07:09:06;;;;;;;30.80;28.53;;;;;;;;;;4975974;28;20441;-85
2021/06/24 07:11:33;;;;;;;29.60;27.47;;;;;;;;;;4975917;28;20450;-85
2021/06/24 07:14:00;;;;;;;27.87;25.97;;;;;;;;;;4976425;28;20441;-85
2021/06/24 07:16:28;;;;;;;29.57;27.13;;;;;;;;;;4976118;28;20447;-84
2021/06/24 07:18:55;;;;;;;29.93;27.53;;;;;;;;;;4976108;28;20414;-85
2021/06/24 07:21:23;;;;;;;30.07;27.87;;;;;;;;;;4975953;28;20435;-84
2021/06/24 07:23:52;;;;;;;30.67;28.40;;;;;;;;;;4976123;28;20868;-85
2021/06/24 07:26:19;;;;;;;29.77;27.57;;;;;;;;;;4975233;28;20486;-85
2021/06/24 07:28:46;;;;;;;30.17;27.60;;;;;;;;;;4975868;28;20442;-85
2021/06/24 07:31:14;;;;;;;31.10;28.50;;;;;;;;;;4976222;28;20434;-86
2021/06/24 07:33:41;;;;;;;32.47;29.77;;;;;;;;;;4975745;28;20496;-85
2021/06/24 07:36:09;;;;;;;29.97;27.83;;;;;;;;;;4958665;28;20536;-85
2021/06/24 07:38:36;;;;;;;30.40;28.10;;;;;;;;;;4975474;28;20449;-85
2021/06/24 07:41:05;;;;;;;31.40;28.87;;;;;;;;;;4958552;28;20824;-85
2021/06/24 07:43:33;;;;;;;31.00;28.57;;;;;;;;;;4975424;28;20900;-85
2021/06/24 07:46:00;;;;;;;29.53;27.43;;;;;;;;;;4975908;28;20436;-86
2021/06/24 07:48:28;;;;;;;31.23;28.80;;;;;;;;;;4975311;28;20440;-85
2021/06/24 07:50:55;;;;;;;29.20;27.20;;;;;;;;;;4975859;28;20441;-85
2021/06/24 07:53:23;;;;;;;31.40;28.90;;;;;;;;;;4958436;28;20470;-85
2021/06/24 07:55:50;;;;;;;31.33;28.67;;;;;;;;;;4975287;28;20441;-85
2021/06/24 07:58:19;;;;;;;32.47;30.13;;;;;;;;;;4975180;28;20469;-85
2021/06/24 08:00:46;;;;;;;30.90;28.63;;;;;;;;;;4975301;28;20450;-87
2021/06/24 08:03:14;;;;;;;31.63;29.17;;;;;;;;;;4975286;28;20470;-89
2021/06/24 08:05:42;;;;;;;31.30;28.90;;;;;;;;;;4958403;28;20426;-86
2021/06/24 08:08:10;;;;;;;29.43;27.53;;;;;;;;;;4975253;28;20862;-86
2021/06/24 08:10:37;;;;;;;31.57;29.20;;;;;;;;;;4975340;28;20923;-86
2021/06/24 08:13:05;;;;;;;30.20;28.00;;;;;;;;;;4975493;28;20816;-86
2021/06/24 08:15:34;;;;;;;30.20;28.00;;;;;;;;;;4975230;28;20960;-86
2021/06/24 08:18:01;;;;;;;29.70;27.47;;;;;;;;;;4975368;28;20440;-90
2021/06/24 08:20:28;;;;;;;31.07;28.80;;;;;;;;;;4975130;28;20455;-85
2021/06/24 08:22:56;;;;;;;31.30;29.00;;;;;;;;;;4974990;28;20423;-85
2021/06/24 08:25:23;;;;;;;30.10;28.10;;;;;;;;;;4974811;28;20457;-85
2021/06/24 08:27:52;;;;;;;31.23;29.03;;;;;;;;;;4974929;28;20487;-85
2021/06/24 08:30:20;;;;;;;29.17;27.00;;;;;;;;;;4975252;28;20810;-85
2021/06/24 08:32:49;;;;;;;30.23;27.77;;;;;;;;;;4957959;28;20477;-84
2021/06/24 08:35:17;;;;;;;30.23;28.10;;;;;;;;;;4974992;28;20467;-85
2021/06/24 08:37:47;;;;;;;30.13;27.97;;;;;;;;;;4975121;28;20501;-85
2021/06/24 08:40:14;;;;;;;30.20;27.90;;;;;;;;;;4975342;28;20480;-85
2021/06/24 08:42:42;;;;;;;29.73;27.73;;;;;;;;;;4975049;28;20439;-85
2021/06/24 08:45:11;;;;;;;31.63;29.03;;;;;;;;;;4974856;28;20439;-85
2021/06/24 08:47:41;;;;;;;31.30;29.07;;;;;;;;;;4974643;28;20442;-86
2021/06/24 08:50:11;;;;;;;33.27;30.27;;;;;;;;;;4975139;28;20410;-85
2021/06/24 08:52:41;;;;;;;31.70;29.40;;;;;;;;;;4958222;28;20453;-84
2021/06/24 08:55:09;;;;;;;31.47;29.20;;;;;;;;;;4974575;28;20483;-85
2021/06/24 08:57:36;;;;;;;32.10;29.70;;;;;;;;;;4974770;28;20487;-86
2021/06/24 09:00:04;;;;;;;31.20;28.90;;;;;;;;;;4974921;28;20443;-91
2021/06/24 09:02:38;;;;;;;30.10;28.07;;;;;;;;;;4974806;28;20443;-86
2021/06/24 09:05:06;;;;;;;30.93;28.73;;;;;;;;;;4975048;28;20871;-86
2021/06/24 09:07:47;;;;;;;31.43;29.07;;;;;;;;;;4976312;28;20449;-86
2021/06/24 09:10:15;;;;;;;31.67;29.40;;;;;;;;;;4978656;28;20432;-87
2021/06/24 09:12:50;;;;;;;29.50;27.30;;;;;;;;;;4978309;28;20489;-87
2021/06/24 09:15:18;;;;;;;30.33;28.27;;;;;;;;;;4978313;28;20466;-86
2021/06/24 09:17:46;;;;;;;31.17;28.97;;;;;;;;;;4978168;28;20899;-86
2021/06/24 09:20:35;;;;;;;30.97;28.70;;;;;;;;;;4978141;28;20772;-86
2021/06/24 09:23:17;;;;;;;30.90;28.50;;;;;;;;;;4961387;28;20448;-86
2021/06/24 09:25:45;;;;;;;31.23;28.60;;;;;;;;;;4977671;28;20912;-86
2021/06/24 09:28:13;;;;;;;32.53;29.97;;;;;;;;;;4978203;28;20432;-86
2021/06/24 09:30:41;;;;;;;30.67;28.70;;;;;;;;;;4978037;28;20416;-86
2021/06/24 09:33:09;;;;;;;31.07;28.57;;;;;;;;;;4977716;28;20462;-85
2021/06/24 09:35:37;;;;;;;31.90;29.50;;;;;;;;;;4978116;28;20419;-92
2021/06/24 09:38:06;;;;;;;31.70;29.40;;;;;;;;;;4978234;28;20468;-84
2021/06/24 09:40:39;;;;;;;32.83;30.43;;;;;;;;;;4977962;28;20824;-87
2021/06/24 09:43:07;;;;;;;34.33;31.80;;;;;;;;;;4977968;28;20419;-91
2021/06/24 09:45:35;;;;;;;30.50;28.30;;;;;;;;;;4978345;28;20420;-88
2021/06/24 09:48:09;;;;;;;30.70;28.43;;;;;;;;;;4978268;28;20814;-85
2021/06/24 09:50:37;;;;;;;30.20;27.60;;;;;;;;;;4977985;28;20466;-86
2021/06/24 09:53:08;;;;;;;32.77;30.10;;;;;;;;;;4977444;28;20993;-86
2021/06/24 09:55:35;;;;;;;30.60;28.30;;;;;;;;;;4977960;28;20434;-86
2021/06/24 09:58:13;;;;;;;32.33;30.10;;;;;;;;;;4977816;28;20462;-87
2021/06/24 10:00:50;;;;;;;32.80;30.10;;;;;;;;;;4977823;28;20491;-87
2021/06/24 10:03:17;;;;;;;32.83;29.47;;;;;;;;;;4977679;28;20419;-87
2021/06/24 10:05:45;;;;;;;32.53;29.83;;;;;;;;;;4977815;28;20426;-86
2021/06/24 10:08:13;;;;;;;31.43;29.03;;;;;;;;;;4960144;28;20460;-86
2021/06/24 10:10:42;;;;;;;31.47;29.37;;;;;;;;;;4977646;28;20420;-87
2021/06/24 10:13:10;;;;;;;31.27;29.10;;;;;;;;;;4960379;28;20817;-86
2021/06/24 10:15:40;;;;;;;33.07;30.23;;;;;;;;;;4977241;28;20452;-86
2021/06/24 10:18:08;;;;;;;32.90;30.10;;;;;;;;;;4959762;28;20430;-87
2021/06/24 10:20:36;;;;;;;31.27;29.27;;;;;;;;;;4977414;28;20877;-85
2021/06/24 10:23:07;;;;;;;32.37;29.90;;;;;;;;;;4959960;28;20448;-86
2021/06/24 10:25:35;;;;;;;33.23;30.40;;;;;;;;;;4976998;28;20470;-88
2021/06/24 10:28:03;;;;;;;32.10;29.47;;;;;;;;;;4977085;28;20506;-85
2021/06/24 10:30:38;;;;;;;32.27;29.90;;;;;;;;;;4960094;28;20797;-88
2021/06/24 10:33:09;;;;;;;34.07;31.40;;;;;;;;;;4976734;28;20495;-87
2021/06/24 10:35:37;;;;;;;33.50;31.20;;;;;;;;;;4976905;28;20512;-88
2021/06/24 10:38:05;;;;;;;31.13;29.00;;;;;;;;;;4976709;28;20431;-87
2021/06/24 10:40:34;;;;;;;31.83;29.53;;;;;;;;;;4977225;28;20481;-86
2021/06/24 10:43:02;;;;;;;34.03;31.43;;;;;;;;;;4976880;28;20994;-86
2021/06/24 10:45:30;;;;;;;31.87;29.60;;;;;;;;;;4977707;28;20418;-87
2021/06/24 10:47:58;;;;;;;32.63;30.27;;;;;;;;;;4977293;28;20585;-85
2021/06/24 10:50:41;;;;;;;32.70;30.10;;;;;;;;;;4976447;28;20816;-84
2021/06/24 10:53:27;;;;;;;34.13;31.63;;;;;;;;;;4976062;28;20463;-85
2021/06/24 10:55:54;;;;;;;33.27;30.87;;;;;;;;;;4975948;28;20906;-85
2021/06/24 10:58:35;;;;;;;32.57;30.30;;;;;;;;;;4958835;28;20833;-84
2021/06/24 11:01:04;;;;;;;34.17;31.43;;;;;;;;;;4975973;28;20446;-85
2021/06/24 11:03:40;;;;;;;32.03;29.70;;;;;;;;;;4976306;28;20547;-85
2021/06/24 11:06:13;;;;;;;31.77;29.43;;;;;;;;;;4975732;28;20434;-84
2021/06/24 11:08:41;;;;;;;31.57;29.37;;;;;;;;;;4959166;28;20424;-84
2021/06/24 11:11:09;;;;;;;33.07;30.80;;;;;;;;;;4976101;28;20785;-84
2021/06/24 11:13:47;;;;;;;34.33;31.43;;;;;;;;;;4975676;28;20474;-84
2021/06/24 11:16:31;;;;;;;33.40;31.10;;;;;;;;;;4975821;28;20443;-85
2021/06/24 11:19:02;;;;;;;34.73;32.03;;;;;;;;;;4975513;28;20415;-85
2021/06/24 11:21:44;;;;;;;32.33;30.03;;;;;;;;;;4975819;28;20441;-84
2021/06/24 11:24:18;;;;;;;33.57;30.90;;;;;;;;;;4958138;28;20449;-84
2021/06/24 11:26:46;;;;;;;33.53;30.93;;;;;;;;;;4975570;28;20423;-84
2021/06/24 11:29:17;;;;;;;32.37;29.87;;;;;;;;;;4975292;28;20445;-84
2021/06/24 11:31:49;;;;;;;32.43;30.13;;;;;;;;;;4975552;28;20899;-85
2021/06/24 11:34:22;;;;;;;32.77;30.43;;;;;;;;;;4976393;28;20470;-85
2021/06/24 11:36:50;;;;;;;33.47;30.97;;;;;;;;;;4975257;28;20458;-84
2021/06/24 11:39:27;;;;;;;33.17;30.80;;;;;;;;;;4975459;28;20427;-84
2021/06/24 11:41:54;;;;;;;33.43;30.47;;;;;;;;;;4958354;28;20424;-84
2021/06/24 11:44:26;;;;;;;33.50;30.97;;;;;;;;;;4975138;28;20447;-84
2021/06/24 11:46:57;;;;;;;31.97;29.77;;;;;;;;;;4975414;28;20444;-84
2021/06/24 11:49:34;;;;;;;33.40;30.90;;;;;;;;;;4975344;28;20423;-84
2021/06/24 12:00:43;;;;;;;31.90;29.50;;;;;;;;;;4975882;28;20443;-87
2021/06/24 12:03:18;;;;;;;34.10;31.57;;;;;;;;;;4975350;28;20481;-85
2021/06/24 12:05:51;;;;;;;33.00;30.40;;;;;;;;;;4958037;28;20462;-87
2021/06/24 12:08:22;;;;;;;35.17;32.20;;;;;;;;;;4974863;28;20500;-85
2021/06/24 12:10:52;;;;;;;33.50;30.70;;;;;;;;;;4974890;28;20886;-85
2021/06/24 12:13:32;;;;;;;35.57;32.67;;;;;;;;;;4975146;28;20789;-85
2021/06/24 12:16:00;;;;;;;33.97;31.40;;;;;;;;;;4975120;28;20437;-85
2021/06/24 12:18:34;;;;;;;36.30;33.53;;;;;;;;;;4975271;28;20525;-85
2021/06/24 12:21:03;;;;;;;34.47;31.97;;;;;;;;;;4958528;28;20435;-86
2021/06/24 12:23:30;;;;;;;33.03;30.80;;;;;;;;;;4975140;28;20774;-86
2021/06/24 12:26:01;;;;;;;36.07;32.70;;;;;;;;;;4974849;28;20459;-86
2021/06/24 12:28:30;;;;;;;35.80;33.17;;;;;;;;;;4975290;28;20464;-86
2021/06/24 12:30:57;;;;;;;33.90;31.43;;;;;;;;;;4975245;28;20838;-86
2021/06/24 12:33:27;;;;;;;34.90;32.37;;;;;;;;;;4974748;28;20479;-86
2021/06/24 12:35:55;;;;;;;34.67;32.10;;;;;;;;;;4975099;28;20423;-86
2021/06/24 12:38:23;;;;;;;33.80;31.27;;;;;;;;;;4974780;28;20451;-86
2021/06/24 12:40:51;;;;;;;34.93;32.43;;;;;;;;;;4975068;28;20870;-85
2021/06/24 12:43:21;;;;;;;36.90;34.10;;;;;;;;;;4977801;28;20439;-85
2021/06/24 12:45:49;;;;;;;33.50;31.17;;;;;;;;;;4979361;28;20468;-85
2021/06/24 12:48:29;;;;;;;36.50;33.83;;;;;;;;;;4978387;28;20446;-85
2021/06/24 12:50:57;;;;;;;35.30;32.77;;;;;;;;;;4978620;28;20411;-85
2021/06/24 12:53:32;;;;;;;34.07;31.53;;;;;;;;;;4978400;28;20463;-84
2021/06/24 12:56:00;;;;;;;33.77;31.53;;;;;;;;;;4978426;28;20438;-85
2021/06/24 12:58:36;;;;;;;36.10;33.30;;;;;;;;;;4978045;28;20969;-84
2021/06/24 13:01:11;;;;;;;34.53;32.00;;;;;;;;;;4978435;28;20410;-85
2021/06/24 13:03:46;;;;;;;36.70;33.90;;;;;;;;;;4978198;28;20411;-85
2021/06/24 13:06:19;;;;;;;36.13;33.13;;;;;;;;;;4974280;28;20808;-85
2021/06/24 13:09:07;;;;;;;36.70;33.70;;;;;;;;;;4977998;28;20496;-85
2021/06/24 13:11:36;;;;;;;34.70;32.00;;;;;;;;;;4972518;28;20475;-84
2021/06/24 13:14:07;;;;;;;35.03;32.63;;;;;;;;;;4978139;28;20555;-85
2021/06/24 13:16:36;;;;;;;34.13;31.83;;;;;;;;;;4978153;28;20445;-86
2021/06/24 13:19:06;;;;;;;35.07;32.40;;;;;;;;;;4960858;28;20921;-85
2021/06/24 13:21:33;;;;;;;34.27;31.97;;;;;;;;;;4977914;28;20445;-86
2021/06/24 13:24:12;;;;;;;35.07;32.57;;;;;;;;;;4960648;28;20436;-86
2021/06/24 13:26:42;;;;;;;34.50;32.10;;;;;;;;;;4977613;28;20436;-86
2021/06/24 13:29:18;;;;;;;35.73;32.93;;;;;;;;;;4977223;28;20519;-86
2021/06/24 13:31:46;;;;;;;35.70;33.00;;;;;;;;;;4977948;28;20914;-86
2021/06/24 13:34:15;;;;;;;35.43;32.70;;;;;;;;;;4960606;28;20456;-86
2021/06/24 13:36:42;;;;;;;35.63;33.00;;;;;;;;;;4977697;28;20444;-86
2021/06/24 13:39:10;;;;;;;35.67;32.90;;;;;;;;;;4978394;28;20445;-86
2021/06/24 13:41:38;;;;;;;34.40;31.70;;;;;;;;;;4977837;28;20457;-85
2021/06/24 13:44:06;;;;;;;34.83;32.33;;;;;;;;;;4976712;28;20424;-86
2021/06/24 13:46:36;;;;;;;33.00;30.63;;;;;;;;;;4974382;28;20441;-86
2021/06/24 13:49:04;;;;;;;34.07;31.37;;;;;;;;;;4977525;28;20793;-86
2021/06/24 13:51:31;;;;;;;33.23;30.90;;;;;;;;;;4976814;28;20441;-86
2021/06/24 13:54:00;;;;;;;34.77;32.10;;;;;;;;;;4959262;28;20459;-86
2021/06/24 13:56:28;;;;;;;33.53;31.13;;;;;;;;;;4977037;28;20450;-86
2021/06/24 13:58:55;;;;;;;32.70;30.37;;;;;;;;;;4977321;28;20445;-86
2021/06/24 14:01:23;;;;;;;33.10;30.33;;;;;;;;;;4977573;28;20468;-86
2021/06/24 14:03:53;;;;;;;33.30;30.90;;;;;;;;;;4960244;28;20817;-85
2021/06/24 14:06:23;;;;;;;31.93;29.50;;;;;;;;;;4977109;28;20467;-86
2021/06/24 14:08:50;;;;;;;31.83;29.30;;;;;;;;;;4977327;28;20415;-85
2021/06/24 14:11:18;;;;;;;33.03;30.47;;;;;;;;;;4977592;28;20424;-85
2021/06/24 14:13:46;;;;;;;34.37;31.40;;;;;;;;;;4959916;28;20763;-85
2021/06/24 14:16:15;;;;;;;33.57;30.93;;;;;;;;;;4960264;28;20416;-85
2021/06/24 14:18:42;;;;;;;36.97;33.57;;;;;;;;;;4976740;28;20451;-85
2021/06/24 14:21:12;;;;;;;35.07;32.33;;;;;;;;;;4959407;28;20944;-86
2021/06/24 14:23:39;;;;;;;33.50;30.70;;;;;;;;;;4976592;28;20461;-85
2021/06/24 14:26:07;;;;;;;34.23;31.90;;;;;;;;;;4991459;28;20475;-84
2021/06/24 14:28:36;;;;;;;35.60;32.63;;;;;;;;;;4976896;28;20424;-84
2021/06/24 14:31:03;;;;;;;35.87;33.37;;;;;;;;;;4976767;28;20442;-85
2021/06/24 14:33:32;;;;;;;32.30;29.80;;;;;;;;;;4976446;28;20912;-85
2021/06/24 14:36:00;;;;;;;35.43;32.80;;;;;;;;;;4976609;28;20453;-84
2021/06/24 14:38:29;;;;;;;35.80;33.10;;;;;;;;;;4976665;28;20456;-85
2021/06/24 14:40:57;;;;;;;33.63;31.23;;;;;;;;;;4976351;28;20437;-85
2021/06/24 14:43:25;;;;;;;33.23;30.57;;;;;;;;;;4976512;28;20876;-85
2021/06/24 14:45:53;;;;;;;32.73;30.43;;;;;;;;;;4976524;28;20532;-85
2021/06/24 14:48:20;;;;;;;34.80;32.00;;;;;;;;;;4976496;28;20443;-84
2021/06/24 14:50:47;;;;;;;35.47;32.83;;;;;;;;;;4976165;28;20445;-85
2021/06/24 14:53:15;;;;;;;33.10;30.90;;;;;;;;;;4976473;28;20776;-84
2021/06/24 14:55:44;;;;;;;34.27;31.83;;;;;;;;;;4975698;28;20467;-85
2021/06/24 14:58:12;;;;;;;33.70;30.90;;;;;;;;;;4976219;28;20833;-85
2021/06/24 15:00:40;;;;;;;33.30;30.90;;;;;;;;;;4975865;28;20468;-87
2021/06/24 15:03:08;;;;;;;33.80;31.50;;;;;;;;;;4975727;28;20440;-83
2021/06/24 15:05:36;;;;;;;33.03;30.70;;;;;;;;;;4975296;28;20495;-80
2021/06/24 15:08:04;;;;;;;35.10;32.40;;;;;;;;;;4975529;28;20413;-84
2021/06/24 15:10:31;;;;;;;32.90;30.43;;;;;;;;;;4976004;28;20442;-88
2021/06/24 15:13:00;;;;;;;31.70;29.70;;;;;;;;;;4975960;28;20591;-87
2021/06/24 15:15:27;;;;;;;31.13;28.87;;;;;;;;;;4976298;28;20493;-88
2021/06/24 15:17:55;;;;;;;32.67;30.47;;;;;;;;;;4976207;28;20427;-86
2021/06/24 15:20:24;;;;;;;31.23;29.03;;;;;;;;;;4976155;28;20417;-87
2021/06/24 15:22:51;;;;;;;31.17;28.83;;;;;;;;;;4975821;28;20413;-82
2021/06/24 15:25:19;;;;;;;31.47;29.10;;;;;;;;;;4975428;28;20489;-86
2021/06/24 15:27:47;;;;;;;31.00;28.70;;;;;;;;;;4975941;28;20802;-85
2021/06/24 15:30:18;;;;;;;29.50;27.60;;;;;;;;;;4975915;28;20420;-86
2021/06/24 15:32:47;;;;;;;31.00;28.70;;;;;;;;;;4991587;28;20902;-87
2021/06/24 15:35:16;;;;;;;30.07;27.90;;;;;;;;;;4990503;28;20991;-84
2021/06/24 15:37:43;;;;;;;29.27;27.00;;;;;;;;;;4975685;28;20487;-85
2021/06/24 15:40:12;;;;;;;27.33;25.43;;;;;;;;;;4975865;28;20804;-85
2021/06/24 15:42:41;;;;;;;28.37;26.30;;;;;;;;;;4975635;28;20416;-85
2021/06/24 15:45:09;;;;;;;28.53;26.63;;;;;;;;;;4975673;28;20474;-88
2021/06/24 15:47:38;;;;;;;33.03;26.10;;;;;;;;;;4975334;28;20437;-85
2021/06/24 15:50:06;;;;;;;27.80;25.60;;;;;;;;;;4975775;28;20416;-87
2021/06/24 15:52:34;;;;;;;29.27;27.30;;;;;;;;;;4975476;28;20416;-85
2021/06/24 15:55:02;;;;;;;28.83;26.70;;;;;;;;;;4974910;28;20463;-86
2021/06/24 15:57:30;;;;;;;26.83;24.87;;;;;;;;;;4975624;28;20460;-83
2021/06/24 15:59:57;;;;;;;27.87;25.97;;;;;;;;;;4989864;28;20489;-83
2021/06/24 16:02:25;;;;;;;28.17;26.27;;;;;;;;;;4989688;28;20758;-83
2021/06/24 16:04:54;;;;;;;28.80;26.80;;;;;;;;;;4989854;28;20438;-83
2021/06/24 16:07:21;;;;;;;27.20;25.20;;;;;;;;;;4975004;28;20424;-83
2021/06/24 16:09:49;;;;;;;28.33;26.13;;;;;;;;;;4974746;28;20434;-82
2021/06/24 16:12:16;;;;;;;28.03;26.33;;;;;;;;;;4975010;28;20782;-82
2021/06/24 16:14:44;;;;;;;28.37;26.37;;;;;;;;;;4974897;28;20489;-83
2021/06/24 16:17:15;;;;;;;27.80;26.03;;;;;;;;;;4978003;28;20413;-83